• Join FlightAware (Why Join?)
  • Login
  • US Flag 
04:34AM EDT


 

Airport Tracker/Info


-or-


 

Live Flight TrackerFlight Track Log ✈ AAY825 ✈ 02-Jul-2014 ✈ KDSM - KPIE

Flight Track Log - Related Links

Times and Time Zones

All times are in EDT time to prevent confusion due to time zone crossing. See the AAY825 flight status page for this flight to view local times or setup timezone preferences in your user account.

Time Position Orientation Groundspeed Altitude Reporting Facility
EDT Latitude Longitude Course Direction KTS MPH feet Rate Location/Type
11:34AM 41.5533 -93.6692 279° West 169 194 1,700  Level Minneapolis Center
11:34AM 41.5581 -93.7106 279° West 182 209 2,800 1,860 Climbing Minneapolis Center
11:35AM 41.4875 -93.7428 199° South 292 336 5,100 2,100 Climbing Minneapolis Center
11:36AM 41.4636 -93.7503 193° South 275 316 5,700 3,000 Climbing Minneapolis Center
11:37AM 41.3806 -93.7233 166° South 298 343 9,100 2,460 Climbing Minneapolis Center
11:38AM 41.3419 -93.6225 117° Southeast 298 343 10,900 1,380 Climbing Minneapolis Center
11:39AM 41.2719 -93.5289 135° Southeast 344 396 12,000 1,140 Climbing Minneapolis Center
11:40AM 41.1986 -93.4239 133° Southeast 379 436 13,300 1,740 Climbing Minneapolis Center
11:41AM 41.1231 -93.3100 131° Southeast 401 461 15,600 2,100 Climbing Minneapolis Center
11:42AM 41.0611 -93.2167 131° Southeast 414 476 17,300 1,920 Climbing Chicago Center
11:43AM 40.9636 -93.0731 132° Southeast 438 504 19,300 1,920 Climbing Chicago Center
11:44AM 40.8794 -92.9511 132° Southeast 449 517 21,300 1,620 Climbing Chicago Center
11:45AM 40.7953 -92.8267 132° Southeast 452 520 22,700 1,320 Climbing Chicago Center
11:46AM 40.7083 -92.7008 132° Southeast 460 529 24,100 1,080 Climbing Chicago Center
11:47AM 40.6194 -92.5714 132° Southeast 473 544 25,000 540 Climbing Chicago Center
11:47AM 40.5586 -92.4842 133° Southeast 471 542 25,000 840 Level Kansas City Center
11:49AM 40.4242 -92.2900 132° Southeast 471 542 26,800 1,320 Climbing Chicago Center
11:50AM 40.3711 -92.2142 133° Southeast 471 542 27,800 1,500 Climbing Kansas City Center
11:51AM 40.2839 -92.0892 132° Southeast 469 540 29,300 1,260 Climbing Kansas City Center
11:52AM 40.1975 -91.9678 133° Southeast 464 534 30,500 960 Climbing Kansas City Center
11:53AM 40.1119 -91.8464 133° Southeast 459 528 31,400 900 Climbing Kansas City Center
11:54AM 40.0253 -91.7250 133° Southeast 459 528 32,400 720 Climbing Kansas City Center
11:55AM 39.9400 -91.6031 132° Southeast 459 528 33,000 240 Climbing Kansas City Center
11:56AM 39.8350 -91.4589 133° Southeast 459 528 33,000  Level Kansas City Center
11:57AM 39.7481 -91.3358 133° Southeast 460 529 33,000  Level Kansas City Center
11:58AM 39.6553 -91.2078 133° Southeast 462 532 33,000  Level Kansas City Center
11:59AM 39.5661 -91.0878 134° Southeast 463 533 33,000  Level Kansas City Center
12:00PM 39.4789 -90.9644 132° Southeast 463 533 33,000  Level Kansas City Center
12:01PM 39.3900 -90.8431 133° Southeast 463 533 33,000  Level Kansas City Center
12:02PM 39.3017 -90.7217 133° Southeast 463 533 33,000  Level Kansas City Center
12:03PM 39.1939 -90.5753 134° Southeast 463 533 33,000  Level Kansas City Center
12:04PM 39.1047 -90.4536 133° Southeast 464 534 33,000  Level Kansas City Center
12:05PM 39.0144 -90.3311 133° Southeast 465 535 33,000  Level Kansas City Center
12:06PM 38.9247 -90.2111 134° Southeast 467 537 33,000  Level Kansas City Center
12:07PM 38.8333 -90.0900 134° Southeast 468 539 33,000  Level Kansas City Center
12:08PM 38.7400 -89.9664 134° Southeast 468 539 33,000  Level Kansas City Center
12:09PM 38.6508 -89.8481 134° Southeast 465 535 33,000  Level Kansas City Center
12:10PM 38.5450 -89.7097 134° Southeast 456 525 33,000  Level Kansas City Center
12:11PM 38.4539 -89.5894 134° Southeast 465 535 33,000  Level Kansas City Center
12:12PM 38.3625 -89.4733 135° Southeast 465 535 33,000  Level Kansas City Center
12:13PM 38.2583 -89.3858 147° Southeast 454 522 33,000  Level Kansas City Center
12:14PM 38.1506 -89.3111 151° Southeast 443 510 33,000  Level Kansas City Center
12:15PM 38.0444 -89.2333 150° Southeast 442 509 33,000  Level Kansas City Center
12:16PM 37.9381 -89.1589 151° Southeast 438 504 33,000  Level Kansas City Center
12:17PM 37.8122 -89.0669 150° Southeast 435 501 33,000  Level Kansas City Center
12:18PM 37.7081 -88.9950 151° Southeast 430 495 33,000  Level Kansas City Center
12:20PM 37.6036 -88.9194 150° Southeast 430 495 33,000  Level Kansas City Center
12:20PM 37.5378 -88.8728 151° Southeast 436 502 33,000  Level Memphis Center
12:21PM 37.4328 -88.7958 150° Southeast 436 502 33,000  Level Memphis Center
12:22PM 37.3272 -88.7222 151° Southeast 435 501 33,000  Level Memphis Center
12:23PM 37.2203 -88.6469 151° Southeast 435 501 33,000  Level Memphis Center
12:24PM 37.1142 -88.5717 150° Southeast 435 501 33,000  Level Memphis Center
12:25PM 37.0069 -88.4969 151° Southeast 436 502 33,000  Level Memphis Center
12:26PM 36.8797 -88.4092 151° Southeast 436 502 33,000  Level Memphis Center
12:27PM 36.7728 -88.3344 151° Southeast 436 502 33,000  Level Memphis Center
12:28PM 36.6650 -88.2603 151° Southeast 436 502 33,000  Level Memphis Center
12:29PM 36.5581 -88.1858 151° Southeast 437 503 33,000  Level Memphis Center
12:30PM 36.4539 -88.1150 151° Southeast 437 503 33,000  Level Memphis Center
12:31PM 36.3275 -88.0281 151° Southeast 439 505 33,000  Level Memphis Center
12:32PM 36.2200 -87.9556 151° Southeast 439 505 33,000  Level Memphis Center
12:34PM 36.1139 -87.8831 151° Southeast 438 504 33,000  Level Memphis Center
12:35PM 36.0072 -87.8106 151° Southeast 438 504 33,000  Level Memphis Center
12:36PM 35.9014 -87.7389 151° Southeast 436 502 33,000  Level Memphis Center
12:37PM 35.7947 -87.6667 151° Southeast 436 502 33,000  Level Memphis Center
12:38PM 35.6722 -87.5836 151° Southeast 434 499 33,000  Level Memphis Center
12:39PM 35.5661 -87.5111 151° Southeast 433 498 33,000  Level Memphis Center
12:40PM 35.4619 -87.4425 152° Southeast 426 490 33,000  Level Memphis Center
12:41PM 35.3625 -87.3756 151° Southeast 426 490 33,000  Level Memphis Center
12:42PM 35.2586 -87.3072 152° Southeast 425 489 33,000  Level Memphis Center
12:43PM 35.1344 -87.2244 151° Southeast 425 489 33,000  Level Memphis Center
12:44PM 35.0306 -87.1558 152° Southeast 424 488 33,000  Level Memphis Center
12:45PM 34.9267 -87.0883 152° Southeast 423 487 33,000  Level Memphis Center
12:46PM 34.8222 -87.0186 151° Southeast 423 487 33,000  Level Memphis Center
12:47PM 34.7169 -86.9497 152° Southeast 424 488 33,000  Level Memphis Center
12:48PM 34.6128 -86.8831 152° Southeast 423 487 33,000  Level Memphis Center
12:49PM 34.5072 -86.8139 152° Southeast 424 488 33,000  Level Memphis Center
12:50PM 34.4025 -86.7461 152° Southeast 424 488 33,000  Level Memphis Center
12:51PM 34.2781 -86.6661 152° Southeast 423 487 33,000  Level Memphis Center
12:52PM 34.1739 -86.5992 152° Southeast 423 487 33,000  Level Memphis Center
12:53PM 34.0694 -86.5311 152° Southeast 423 487 33,000  Level Memphis Center
12:54PM 33.9656 -86.4647 152° Southeast 423 487 33,000  Level Memphis Center
12:55PM 33.8600 -86.3967 152° Southeast 424 488 33,000  Level Memphis Center
12:56PM 33.7539 -86.3292 152° Southeast 425 489 33,000  Level Memphis Center
12:58PM 33.5994 -86.2336 153° Southeast 422 486 33,000  Level Atlanta Center
12:59PM 33.5086 -86.1714 150° Southeast 413 475 33,000  Level Atlanta Center
01:00PM 33.4033 -86.1017 151° Southeast 413 475 33,000  Level Atlanta Center
01:01PM 33.2981 -86.0394 154° Southeast 419 482 33,000  Level Atlanta Center
01:02PM 33.1925 -85.9700 151° Southeast 424 488 33,000  Level Atlanta Center
01:03PM 33.0872 -85.9058 153° Southeast 429 494 33,000  Level Atlanta Center
01:04PM 32.9750 -85.8686 164° South 423 487 33,000  Level Atlanta Center
01:05PM 32.8608 -85.8242 162° South 423 487 33,000  Level Atlanta Center
01:06PM 32.7444 -85.7825 163° South 428 493 33,000  Level Atlanta Center
01:07PM 32.6306 -85.7161 154° Southeast 433 498 33,000  Level Atlanta Center
01:08PM 32.5231 -85.6400 149° Southeast 433 498 33,000  Level Atlanta Center
01:09PM 32.4156 -85.5717 152° Southeast 433 498 33,000  Level Atlanta Center
01:10PM 32.3100 -85.5011 151° Southeast 438 504 33,000  Level Atlanta Center
01:11PM 32.2042 -85.4306 151° Southeast 438 504 33,000  Level Atlanta Center
01:14PM 31.8203 -85.1786 151° Southeast 456 525 33,000  Level Jacksonville Center
01:15PM 31.7169 -85.1125 151° Southeast 449 517 33,000  Level Jacksonville Center
01:16PM 31.6200 -85.0492 151° Southeast 449 517 33,000  Level Jacksonville Center
01:17PM 31.5292 -84.9886 150° Southeast 449 517 33,000  Level Jacksonville Center
01:18PM 31.3969 -84.9031 151° Southeast 449 517 33,000  Level Jacksonville Center
01:19PM 31.2914 -84.8350 151° Southeast 449 517 33,000  Level Jacksonville Center
01:20PM 31.1881 -84.7672 151° Southeast 444 511 33,000  Level Jacksonville Center
01:21PM 31.0742 -84.6947 151° Southeast 444 511 33,000  Level Jacksonville Center
01:22PM 30.9667 -84.6247 151° Southeast 455 524 33,000  Level Jacksonville Center
01:23PM 30.8550 -84.5528 151° Southeast 455 524 33,000  Level Jacksonville Center
01:24PM 30.7453 -84.4831 151° Southeast 455 524 33,000  Level Jacksonville Center
01:25PM 30.6353 -84.4136 151° Southeast 450 518 33,000 -60 Level Jacksonville Center
01:26PM 30.5381 -84.3494 150° Southeast 450 518 32,900 -60 Descending Jacksonville Center
01:27PM 30.4281 -84.2778 151° Southeast 455 524 32,900  Level Jacksonville Center
01:28PM 30.3203 -84.2114 152° Southeast 450 518 32,900  Level Jacksonville Center
01:29PM 30.2122 -84.1450 152° Southeast 450 518 32,900  Level Jacksonville Center
01:30PM 30.1044 -84.0761 151° Southeast 450 518 32,900 -180 Level Jacksonville Center
01:31PM 29.9944 -84.0053 151° Southeast 450 518 32,600 -720 Descending Jacksonville Center
01:32PM 29.8864 -83.9394 152° Southeast 450 518 31,500 -1,080 Descending Jacksonville Center
01:33PM 29.7764 -83.8714 152° Southeast 450 518 30,500 -1,140 Descending Jacksonville Center
01:34PM 29.6683 -83.7986 150° Southeast 450 518 29,300 -1,200 Descending Jacksonville Center
01:35PM 29.5622 -83.7306 151° Southeast 450 518 28,200 -1,140 Descending Jacksonville Center
01:36PM 29.4542 -83.6631 151° Southeast 445 512 27,100 -1,140 Descending Jacksonville Center
01:37PM 29.3503 -83.5953 150° Southeast 440 506 26,000 -1,080 Descending Jacksonville Center
01:38PM 29.2503 -83.5306 151° Southeast 434 499 25,000 -1,200 Descending Jacksonville Center
01:39PM 29.1483 -83.4656 151° Southeast 429 494 23,700 -1,500 Descending Jacksonville Center
01:40PM 29.0464 -83.4008 151° Southeast 418 481 22,100 -1,620 Descending Jacksonville Center
01:41PM 28.9464 -83.3364 151° Southeast 418 481 20,500 -1,680 Descending Jacksonville Center
01:42PM 28.8506 -83.2742 150° Southeast 412 474 18,800 -1,740 Descending Jacksonville Center
01:43PM 28.7547 -83.2147 151° Southeast 405 466 17,100 -1,860 Descending Jacksonville Center
01:45PM 28.5833 -83.1167 153° Southeast 369 425 13,800 -1,800 Descending Tampa TRACON
01:46PM 28.5000 -83.0500 145° Southeast 360 414 12,300 -1,380 Descending Tampa TRACON
01:47PM 28.4167 -83.0000 152° Southeast 329 379 11,100 -1,200 Descending Tampa TRACON
01:48PM 28.3333 -82.9500 152° Southeast 302 348 9,800 -1,320 Descending Tampa TRACON
01:49PM 28.2667 -82.9333 168° South 300 345 8,500 -1,320 Descending Tampa TRACON
01:50PM 28.1833 -82.9000 161° South 300 345 7,300 -1,200 Descending Tampa TRACON
01:51PM 28.1000 -82.8667 161° South 295 339 6,000 -1,320 Descending Tampa TRACON
01:52PM 28.0167 -82.8500 170° South 287 330 4,600 -1,020 Descending Tampa TRACON
01:53PM 27.9500 -82.8333 168° South 261 300 4,000 -300 Descending Tampa TRACON
01:54PM 27.8833 -82.8000 156° South 227 261 4,000 -540 Level Tampa TRACON
01:55PM 27.8333 -82.7833 164° South 222 255 3,000 -1,020 Descending Tampa TRACON
01:56PM 27.8167 -82.7333 111° Southeast 198 228 2,000 -840 Descending Tampa TRACON
01:57PM 27.8333 -82.6833 69° East 191 220 1,400 -780 Descending Tampa TRACON
01:58PM 27.8833 -82.6833 360° North 149 171 500 -900 Descending Tampa TRACON